createdAt,value
2017-12-15T00:00:05.038Z,0.00
2017-12-15T00:01:57.996Z,0.00
2017-12-15T00:02:57.994Z,0.00
2017-12-15T00:04:51.958Z,0.00
2017-12-15T00:05:51.972Z,0.00
2017-12-15T00:07:44.930Z,0.00
2017-12-15T00:08:44.928Z,0.00
2017-12-15T00:10:37.876Z,0.00
2017-12-15T00:11:37.894Z,0.00
2017-12-15T00:13:30.839Z,0.00
2017-12-15T00:14:30.846Z,0.00
2017-12-15T00:16:23.786Z,0.00
2017-12-15T00:17:23.804Z,0.00
2017-12-15T00:19:16.745Z,0.00
2017-12-15T00:20:16.742Z,0.00
2017-12-15T00:22:09.700Z,0.00
2017-12-15T00:23:09.794Z,0.00
2017-12-15T00:25:03.149Z,0.00
2017-12-15T00:26:03.163Z,0.00
2017-12-15T00:27:56.632Z,0.00
2017-12-15T00:28:56.630Z,0.00
2017-12-15T00:30:49.569Z,0.00
2017-12-15T00:31:49.584Z,0.00
2017-12-15T00:33:43.067Z,0.00
2017-12-15T00:34:43.064Z,0.00
2017-12-15T00:36:35.988Z,0.00
2017-12-15T00:37:36.006Z,0.00
2017-12-15T00:39:28.960Z,0.00
2017-12-15T00:40:28.958Z,0.00
2017-12-15T00:42:21.917Z,0.00
2017-12-15T00:43:21.912Z,0.00
2017-12-15T00:45:14.853Z,0.00
2017-12-15T00:46:14.876Z,0.00
2017-12-15T00:48:07.826Z,0.00
2017-12-15T00:49:07.841Z,0.00
2017-12-15T00:51:00.772Z,0.00
2017-12-15T00:52:00.789Z,0.00
2017-12-15T00:53:53.735Z,0.00
2017-12-15T00:54:53.737Z,0.00
2017-12-15T00:56:46.685Z,0.00
2017-12-15T00:57:46.682Z,0.00
2017-12-15T00:59:39.622Z,0.00
2017-12-15T01:00:39.642Z,0.00
2017-12-15T01:02:32.600Z,0.00
2017-12-15T01:03:32.593Z,0.00
2017-12-15T01:05:25.531Z,0.00
2017-12-15T01:06:25.547Z,0.00
2017-12-15T01:08:18.502Z,0.00
2017-12-15T01:09:18.500Z,0.00
2017-12-15T01:11:11.438Z,0.00
2017-12-15T01:12:11.454Z,0.00
2017-12-15T01:14:04.412Z,0.00
2017-12-15T01:15:04.411Z,0.00
2017-12-15T01:16:57.370Z,0.00
2017-12-15T01:17:57.363Z,0.00
2017-12-15T01:19:50.313Z,0.00
2017-12-15T01:20:50.319Z,0.00
2017-12-15T01:22:43.276Z,0.00
2017-12-15T01:23:43.273Z,0.00
2017-12-15T01:25:36.209Z,0.00
2017-12-15T01:26:36.225Z,0.00
2017-12-15T01:28:29.182Z,0.00
2017-12-15T01:29:29.179Z,0.00
2017-12-15T01:31:22.117Z,0.00
2017-12-15T01:32:22.143Z,0.00
2017-12-15T01:34:15.096Z,0.00
2017-12-15T01:35:15.093Z,0.00
2017-12-15T01:37:08.044Z,0.00
2017-12-15T01:38:08.042Z,0.00
2017-12-15T01:40:00.979Z,0.00
2017-12-15T01:41:00.996Z,0.00
2017-12-15T01:42:53.953Z,0.00
2017-12-15T01:43:53.950Z,0.00
2017-12-15T01:45:46.888Z,0.00
2017-12-15T01:46:46.908Z,0.00
2017-12-15T01:48:39.864Z,0.00
2017-12-15T01:49:39.860Z,0.00
2017-12-15T01:51:32.796Z,0.00
2017-12-15T01:52:32.813Z,0.00
2017-12-15T01:54:25.769Z,0.00
2017-12-15T01:55:25.768Z,0.00
2017-12-15T01:57:18.735Z,0.00
2017-12-15T01:58:18.721Z,0.00
2017-12-15T02:00:11.682Z,0.00
2017-12-15T02:01:11.677Z,0.00
2017-12-15T02:03:04.644Z,0.00
2017-12-15T02:04:04.631Z,0.00
2017-12-15T02:05:57.567Z,0.00
2017-12-15T02:06:57.582Z,0.00
2017-12-15T02:08:50.540Z,0.00
2017-12-15T02:09:50.537Z,0.00
2017-12-15T02:11:43.476Z,0.00
2017-12-15T02:12:43.491Z,0.00
2017-12-15T02:14:36.448Z,0.00
2017-12-15T02:15:36.446Z,0.00
2017-12-15T02:17:29.403Z,0.00
2017-12-15T02:18:29.400Z,0.00
2017-12-15T02:20:22.339Z,0.00
2017-12-15T02:21:22.353Z,0.00
2017-12-15T02:23:15.314Z,0.00
2017-12-15T02:24:15.309Z,0.00
2017-12-15T02:26:08.758Z,0.00
2017-12-15T02:27:08.774Z,0.00
2017-12-15T02:29:01.731Z,0.00
2017-12-15T02:30:01.728Z,0.00
2017-12-15T02:31:54.666Z,0.00
2017-12-15T02:32:54.683Z,0.00
2017-12-15T02:34:47.639Z,0.00
2017-12-15T02:35:47.639Z,0.00
2017-12-15T02:37:40.594Z,0.00
2017-12-15T02:38:40.589Z,0.00
2017-12-15T02:40:33.531Z,0.00
2017-12-15T02:41:33.545Z,0.00
2017-12-15T02:43:26.503Z,0.00
2017-12-15T02:44:26.502Z,0.00
2017-12-15T02:46:19.440Z,0.00
2017-12-15T02:47:19.454Z,0.00
2017-12-15T02:49:12.411Z,0.00
2017-12-15T02:50:12.410Z,0.00
2017-12-15T02:52:05.344Z,0.00
2017-12-15T02:53:05.361Z,0.00
2017-12-15T02:54:58.336Z,0.00
2017-12-15T02:55:58.330Z,0.00
2017-12-15T02:57:51.275Z,0.00
2017-12-15T02:58:51.269Z,0.00
2017-12-15T03:00:44.210Z,0.00
2017-12-15T03:01:44.228Z,0.00
2017-12-15T03:03:37.182Z,0.00
2017-12-15T03:04:37.190Z,0.00
2017-12-15T03:06:30.116Z,0.00
2017-12-15T03:07:30.132Z,0.00
2017-12-15T03:09:23.089Z,0.00
2017-12-15T03:10:23.087Z,0.00
2017-12-15T03:12:16.025Z,0.00
2017-12-15T03:13:16.040Z,0.00
2017-12-15T03:15:08.996Z,0.00
2017-12-15T03:16:08.994Z,0.00
2017-12-15T03:18:01.956Z,0.00
2017-12-15T03:19:01.949Z,0.00
2017-12-15T03:20:54.888Z,0.00
2017-12-15T03:21:54.905Z,0.00
2017-12-15T03:23:47.861Z,0.00
2017-12-15T03:24:47.858Z,0.00
2017-12-15T03:26:40.796Z,0.00
2017-12-15T03:27:40.811Z,0.00
2017-12-15T03:29:33.769Z,0.00
2017-12-15T03:30:33.779Z,0.00
2017-12-15T03:32:26.713Z,0.00
2017-12-15T03:33:26.719Z,0.00
2017-12-15T03:35:19.677Z,0.00
2017-12-15T03:36:19.675Z,0.00
2017-12-15T03:38:12.638Z,0.00
2017-12-15T03:39:12.631Z,0.00
2017-12-15T03:41:06.080Z,0.00
2017-12-15T03:42:06.098Z,0.00
2017-12-15T03:43:59.054Z,0.00
2017-12-15T03:44:59.051Z,0.00
2017-12-15T03:46:51.985Z,0.00
2017-12-15T03:47:52.008Z,0.00
2017-12-15T03:49:44.963Z,0.00
2017-12-15T03:50:44.958Z,0.00
2017-12-15T03:52:37.895Z,0.00
2017-12-15T03:53:37.911Z,0.00
2017-12-15T03:55:30.870Z,0.00
2017-12-15T03:56:30.865Z,0.00
2017-12-15T03:58:23.822Z,0.00
2017-12-15T03:59:23.838Z,0.00
2017-12-15T04:01:16.758Z,0.00
2017-12-15T04:02:16.774Z,0.00
2017-12-15T04:04:09.746Z,0.00
2017-12-15T04:05:09.743Z,0.00
2017-12-15T04:07:02.665Z,0.00
2017-12-15T04:08:02.683Z,0.00
2017-12-15T04:09:55.638Z,0.00
2017-12-15T04:10:55.639Z,0.00
2017-12-15T04:12:48.576Z,0.00
2017-12-15T04:13:48.591Z,0.00
2017-12-15T04:15:41.548Z,0.00
2017-12-15T04:16:41.545Z,0.00
2017-12-15T04:18:34.503Z,0.00
2017-12-15T04:19:34.498Z,0.00
2017-12-15T04:21:27.437Z,0.00
2017-12-15T04:22:27.453Z,0.00
2017-12-15T04:24:20.410Z,0.00
2017-12-15T04:25:20.405Z,0.00
2017-12-15T04:27:13.346Z,0.00
2017-12-15T04:28:13.361Z,0.00
2017-12-15T04:30:06.317Z,0.00
2017-12-15T04:31:06.315Z,0.00
2017-12-15T04:32:59.273Z,0.00
2017-12-15T04:33:59.271Z,0.00
2017-12-15T04:35:52.227Z,0.00
2017-12-15T04:36:52.224Z,0.00
2017-12-15T04:38:45.182Z,0.00
2017-12-15T04:39:45.177Z,0.00
2017-12-15T04:41:38.115Z,0.00
2017-12-15T04:42:38.229Z,0.00
2017-12-15T04:44:31.088Z,0.00
2017-12-15T04:45:31.097Z,0.00
2017-12-15T04:47:24.028Z,0.00
2017-12-15T04:48:24.047Z,0.00
2017-12-15T04:50:16.996Z,0.00
2017-12-15T04:51:16.993Z,0.00
2017-12-15T04:53:09.938Z,0.00
2017-12-15T04:54:09.951Z,0.00
2017-12-15T04:56:02.904Z,0.00
2017-12-15T04:57:02.902Z,0.00
2017-12-15T04:58:55.862Z,0.00
2017-12-15T04:59:55.856Z,0.00
2017-12-15T05:01:48.796Z,0.00
2017-12-15T05:02:48.814Z,0.00
2017-12-15T05:04:41.767Z,0.00
2017-12-15T05:05:41.764Z,0.00
2017-12-15T05:07:34.706Z,0.00
2017-12-15T05:08:34.719Z,0.00
2017-12-15T05:10:27.675Z,0.00
2017-12-15T05:11:27.673Z,0.00
2017-12-15T05:13:20.644Z,0.00
2017-12-15T05:14:20.629Z,0.00
2017-12-15T05:16:13.589Z,0.00
2017-12-15T05:17:13.581Z,0.00
2017-12-15T05:19:06.539Z,0.00
2017-12-15T05:20:06.535Z,0.00
2017-12-15T05:21:59.477Z,0.00
2017-12-15T05:22:59.489Z,0.00
2017-12-15T05:24:52.447Z,0.00
2017-12-15T05:25:52.445Z,0.00
2017-12-15T05:27:45.381Z,0.00
2017-12-15T05:28:45.409Z,0.00
2017-12-15T05:30:38.361Z,0.00
2017-12-15T05:31:38.375Z,0.00
2017-12-15T05:33:31.544Z,0.00
2017-12-15T05:34:31.332Z,0.00
2017-12-15T05:36:24.267Z,0.00
2017-12-15T05:37:24.265Z,0.00
2017-12-15T05:39:17.222Z,0.00
2017-12-15T05:40:17.215Z,0.00
2017-12-15T05:42:10.152Z,0.00
2017-12-15T05:43:10.169Z,0.00
2017-12-15T05:45:03.126Z,0.00
2017-12-15T05:46:03.128Z,0.00
2017-12-15T05:47:56.066Z,0.00
2017-12-15T05:48:56.078Z,0.00
2017-12-15T05:50:49.039Z,0.00
2017-12-15T05:51:49.034Z,0.00
2017-12-15T05:53:42.180Z,0.00
2017-12-15T05:54:41.988Z,0.00
2017-12-15T05:56:34.949Z,0.00
2017-12-15T05:57:34.943Z,0.00
2017-12-15T05:59:27.896Z,0.00
2017-12-15T06:00:27.893Z,0.00
2017-12-15T06:02:20.833Z,0.00
2017-12-15T06:03:20.847Z,0.00
2017-12-15T06:05:13.808Z,0.00
2017-12-15T06:06:13.803Z,0.00
2017-12-15T06:08:06.742Z,0.00
2017-12-15T06:09:06.781Z,0.00
2017-12-15T06:10:59.716Z,0.00
2017-12-15T06:11:59.711Z,0.00
2017-12-15T06:13:52.660Z,0.00
2017-12-15T06:14:52.667Z,0.00
2017-12-15T06:16:45.624Z,0.00
2017-12-15T06:17:45.620Z,0.00
2017-12-15T06:19:38.578Z,0.00
2017-12-15T06:20:38.575Z,0.00
2017-12-15T06:22:31.514Z,0.00
2017-12-15T06:23:31.527Z,0.00
2017-12-15T06:25:24.490Z,0.00
2017-12-15T06:26:24.487Z,0.00
2017-12-15T06:28:17.419Z,0.00
2017-12-15T06:29:17.437Z,0.00
2017-12-15T06:31:10.394Z,0.00
2017-12-15T06:32:10.389Z,0.00
2017-12-15T06:34:03.335Z,0.00
2017-12-15T06:35:03.347Z,0.00
2017-12-15T06:36:56.310Z,0.00
2017-12-15T06:37:56.299Z,0.00
2017-12-15T06:39:49.273Z,0.00
2017-12-15T06:40:49.254Z,0.00
2017-12-15T06:42:42.193Z,0.00
2017-12-15T06:43:42.207Z,0.00
2017-12-15T06:45:35.165Z,0.00
2017-12-15T06:46:35.159Z,0.00
2017-12-15T06:48:28.102Z,0.00
2017-12-15T06:49:28.117Z,0.00
2017-12-15T06:51:21.084Z,0.00
2017-12-15T06:52:21.081Z,0.00
2017-12-15T06:54:14.524Z,0.00
2017-12-15T06:55:14.535Z,0.00
2017-12-15T06:57:08.015Z,0.00
2017-12-15T06:58:08.012Z,0.00
2017-12-15T07:00:01.478Z,0.00
2017-12-15T07:01:01.473Z,0.00
2017-12-15T07:02:54.923Z,4.00
2017-12-15T07:03:54.935Z,0.00
2017-12-15T07:05:49.907Z,4.00
2017-12-15T07:06:49.431Z,4.00
2017-12-15T07:08:42.879Z,8.00
2017-12-15T07:09:42.892Z,8.00
2017-12-15T07:11:37.395Z,8.00
2017-12-15T07:12:37.391Z,8.00
2017-12-15T07:14:33.397Z,16.00
2017-12-15T07:15:33.502Z,16.00
2017-12-15T07:17:26.365Z,24.00
2017-12-15T07:18:26.361Z,24.00
2017-12-15T07:20:19.830Z,28.00
2017-12-15T07:21:19.827Z,28.00
2017-12-15T07:23:13.280Z,36.00
2017-12-15T07:24:13.291Z,40.00
2017-12-15T07:26:06.780Z,40.00
2017-12-15T07:27:06.760Z,40.00
2017-12-15T07:29:00.213Z,56.00
2017-12-15T07:30:00.229Z,56.00
2017-12-15T07:31:53.184Z,60.00
2017-12-15T07:32:53.180Z,76.00
2017-12-15T07:34:46.630Z,92.00
2017-12-15T07:35:54.358Z,108.00
2017-12-15T07:37:39.605Z,128.00
2017-12-15T07:38:39.599Z,112.00
2017-12-15T07:40:33.070Z,100.00
2017-12-15T07:41:33.067Z,104.00
2017-12-15T07:43:26.537Z,140.00
2017-12-15T07:44:26.533Z,172.00
2017-12-15T07:46:19.490Z,208.00
2017-12-15T07:47:19.487Z,244.00
2017-12-15T07:49:12.949Z,228.00
2017-12-15T07:50:12.955Z,208.00
2017-12-15T07:52:06.425Z,216.00
2017-12-15T07:53:06.421Z,292.00
2017-12-15T07:54:59.871Z,336.00
2017-12-15T07:55:59.885Z,424.00
2017-12-15T07:57:53.356Z,576.00
2017-12-15T07:58:53.360Z,604.00
2017-12-15T08:00:46.822Z,624.00
2017-12-15T08:01:46.817Z,648.00
2017-12-15T08:03:40.274Z,760.00
2017-12-15T08:04:40.287Z,824.00
2017-12-15T08:06:33.743Z,904.00
2017-12-15T08:07:33.241Z,944.00
2017-12-15T08:09:26.692Z,1080.00
2017-12-15T08:10:26.705Z,1136.00
2017-12-15T08:12:19.662Z,1180.00
2017-12-15T08:13:19.659Z,1224.00
2017-12-15T08:15:12.598Z,1244.00
2017-12-15T08:16:12.614Z,1284.00
2017-12-15T08:18:05.569Z,1280.00
2017-12-15T08:19:05.566Z,1284.00
2017-12-15T08:20:58.543Z,1424.00
2017-12-15T08:21:58.521Z,1528.00
2017-12-15T08:23:51.461Z,1912.00
2017-12-15T08:24:51.477Z,1932.00
2017-12-15T08:26:44.946Z,1652.00
2017-12-15T08:27:44.939Z,1356.00
2017-12-15T08:29:37.890Z,1748.00
2017-12-15T08:30:37.898Z,1700.00
2017-12-15T08:32:30.855Z,1648.00
2017-12-15T08:33:30.850Z,1688.00
2017-12-15T08:35:24.301Z,1936.00
2017-12-15T08:36:24.316Z,2064.00
2017-12-15T08:38:17.272Z,2452.00
2017-12-15T08:39:17.295Z,2932.00
2017-12-15T08:41:10.739Z,2716.00
2017-12-15T08:42:10.738Z,2716.00
2017-12-15T08:44:03.675Z,2660.00
2017-12-15T08:45:03.692Z,2564.00
2017-12-15T08:46:57.170Z,2400.00
2017-12-15T08:47:57.165Z,2404.00
2017-12-15T08:49:50.096Z,2416.00
2017-12-15T08:50:50.111Z,2388.00
2017-12-15T08:52:43.067Z,2252.00
2017-12-15T08:53:43.064Z,2212.00
2017-12-15T08:55:36.003Z,2048.00
2017-12-15T08:56:36.079Z,2276.00
2017-12-15T08:58:28.977Z,2592.00
2017-12-15T08:59:28.975Z,2556.00
2017-12-15T09:01:21.934Z,2828.00
2017-12-15T09:02:21.935Z,2852.00
2017-12-15T09:04:14.867Z,3064.00
2017-12-15T09:05:14.883Z,3100.00
2017-12-15T09:07:09.375Z,2692.00
2017-12-15T09:08:09.379Z,2464.00
2017-12-15T09:10:07.331Z,2380.00
2017-12-15T09:11:07.348Z,2296.00
2017-12-15T09:13:01.837Z,2116.00
2017-12-15T09:14:01.836Z,2136.00
2017-12-15T09:15:54.799Z,2216.00
2017-12-15T09:16:54.791Z,2160.00
2017-12-15T09:18:48.246Z,2028.00
2017-12-15T09:19:48.261Z,1988.00
2017-12-15T09:21:41.210Z,2000.00
2017-12-15T09:22:41.210Z,2040.00
2017-12-15T09:24:37.119Z,2040.00
2017-12-15T09:25:37.135Z,2064.00
2017-12-15T09:27:31.628Z,2276.00
2017-12-15T09:28:31.625Z,2328.00
2017-12-15T09:30:25.089Z,2324.00
2017-12-15T09:31:25.091Z,2296.00
2017-12-15T09:33:18.559Z,2280.00
2017-12-15T09:34:18.558Z,2284.00
2017-12-15T09:36:11.514Z,2316.00
2017-12-15T09:37:11.512Z,2340.00
2017-12-15T09:39:04.960Z,2416.00
2017-12-15T09:40:04.977Z,2460.00
2017-12-15T09:41:58.448Z,2448.00
2017-12-15T09:42:58.444Z,2392.00
2017-12-15T09:44:51.896Z,2092.00
2017-12-15T09:45:51.917Z,1924.00
2017-12-15T09:47:44.866Z,1800.00
2017-12-15T09:48:44.865Z,1844.00
2017-12-15T09:50:37.800Z,1880.00
2017-12-15T09:51:37.816Z,1836.00
2017-12-15T09:53:31.288Z,1976.00
2017-12-15T09:54:31.286Z,2200.00
2017-12-15T09:56:24.757Z,2632.00
2017-12-15T09:57:24.754Z,2788.00
2017-12-15T09:59:17.688Z,2876.00
2017-12-15T10:00:17.709Z,2896.00
2017-12-15T10:02:11.184Z,2972.00
2017-12-15T10:03:11.171Z,3004.00
2017-12-15T10:05:04.623Z,3088.00
2017-12-15T10:06:04.636Z,3136.00
2017-12-15T10:07:58.114Z,3268.00
2017-12-15T10:08:58.104Z,3336.00
2017-12-15T10:10:51.556Z,3496.00
2017-12-15T10:11:51.581Z,3516.00
2017-12-15T10:13:45.070Z,3560.00
2017-12-15T10:14:45.039Z,3576.00
2017-12-15T10:16:39.543Z,3568.00
2017-12-15T10:17:39.535Z,3552.00
2017-12-15T10:19:32.464Z,3460.00
2017-12-15T10:20:32.480Z,3384.00
2017-12-15T10:22:25.961Z,3336.00
2017-12-15T10:23:25.950Z,3356.00
2017-12-15T10:25:19.415Z,3400.00
2017-12-15T10:26:19.420Z,3428.00
2017-12-15T10:28:12.886Z,3512.00
2017-12-15T10:29:12.890Z,3572.00
2017-12-15T10:31:06.330Z,3676.00
2017-12-15T10:32:06.349Z,3716.00
2017-12-15T10:34:00.839Z,3784.00
2017-12-15T10:35:00.838Z,3816.00
2017-12-15T10:36:53.791Z,3908.00
2017-12-15T10:37:53.788Z,3932.00
2017-12-15T10:39:47.247Z,3940.00
2017-12-15T10:40:47.265Z,3940.00
2017-12-15T10:42:41.750Z,3920.00
2017-12-15T10:43:41.746Z,3868.00
2017-12-15T10:45:34.685Z,3872.00
2017-12-15T10:46:34.720Z,3940.00
2017-12-15T10:48:27.653Z,4012.00
2017-12-15T10:49:27.656Z,4024.00
2017-12-15T10:51:21.104Z,3924.00
2017-12-15T10:52:21.119Z,3860.00
2017-12-15T10:54:14.077Z,3904.00
2017-12-15T10:55:14.073Z,3968.00
2017-12-15T10:57:07.027Z,4092.00
2017-12-15T10:58:07.026Z,4160.00
2017-12-15T11:00:00.477Z,4268.00
2017-12-15T11:01:00.493Z,4336.00
2017-12-15T11:02:53.966Z,4472.00
2017-12-15T11:03:53.965Z,4556.00
2017-12-15T11:05:49.892Z,4712.00
2017-12-15T11:06:49.892Z,4784.00
2017-12-15T11:08:43.351Z,4896.00
2017-12-15T11:09:43.358Z,4948.00
2017-12-15T11:11:36.810Z,4980.00
2017-12-15T11:12:36.822Z,4964.00
2017-12-15T11:14:30.285Z,4960.00
2017-12-15T11:15:30.286Z,4972.00
2017-12-15T11:17:23.756Z,4988.00
2017-12-15T11:18:23.753Z,5052.00
2017-12-15T11:20:17.199Z,5080.00
2017-12-15T11:21:17.221Z,5064.00
2017-12-15T11:23:10.174Z,5048.00
2017-12-15T11:24:10.172Z,5040.00
2017-12-15T11:26:03.621Z,4888.00
2017-12-15T11:27:03.639Z,4828.00
2017-12-15T11:28:57.103Z,4744.00
2017-12-15T11:29:57.106Z,4768.00
2017-12-15T11:31:50.550Z,4816.00
2017-12-15T11:32:50.570Z,4852.00
2017-12-15T11:34:44.035Z,4868.00
2017-12-15T11:35:44.039Z,4872.00
2017-12-15T11:37:36.990Z,5028.00
2017-12-15T11:38:36.990Z,5280.00
2017-12-15T11:40:30.441Z,5168.00
2017-12-15T11:41:30.460Z,5080.00
2017-12-15T11:43:23.941Z,5140.00
2017-12-15T11:44:23.929Z,4972.00
2017-12-15T11:46:17.371Z,5024.00
2017-12-15T11:47:17.395Z,4868.00
2017-12-15T11:49:13.321Z,4592.00
2017-12-15T11:50:13.318Z,4192.00
2017-12-15T11:52:06.759Z,3648.00
2017-12-15T11:53:06.780Z,3308.00
2017-12-15T11:54:59.735Z,3260.00
2017-12-15T11:55:59.733Z,3280.00
2017-12-15T11:57:53.203Z,3284.00
2017-12-15T11:58:53.202Z,3300.00
2017-12-15T12:00:46.139Z,3072.00
2017-12-15T12:01:46.155Z,2980.00
2017-12-15T12:03:40.648Z,2564.00
2017-12-15T12:04:40.645Z,2152.00
2017-12-15T12:06:34.092Z,1988.00
2017-12-15T12:07:34.111Z,1672.00
2017-12-15T12:09:28.609Z,1904.00
2017-12-15T12:10:28.600Z,2096.00
2017-12-15T12:12:22.046Z,2300.00
2017-12-15T12:13:22.067Z,2520.00
2017-12-15T12:15:15.535Z,3384.00
2017-12-15T12:16:15.533Z,3428.00
2017-12-15T12:18:08.488Z,3440.00
2017-12-15T12:19:08.488Z,3596.00
2017-12-15T12:21:03.982Z,4024.00
2017-12-15T12:22:04.002Z,3996.00
2017-12-15T12:23:56.956Z,3872.00
2017-12-15T12:24:56.958Z,3768.00
2017-12-15T12:26:50.404Z,3400.00
2017-12-15T12:27:50.426Z,3252.00
2017-12-15T12:29:44.912Z,3212.00
2017-12-15T12:30:44.914Z,3240.00
2017-12-15T12:32:38.362Z,3276.00
2017-12-15T12:33:38.380Z,3292.00
2017-12-15T12:35:31.841Z,3288.00
2017-12-15T12:36:31.850Z,3392.00
2017-12-15T12:38:25.333Z,3284.00
2017-12-15T12:39:25.308Z,3180.00
2017-12-15T12:41:18.758Z,3084.00
2017-12-15T12:42:18.779Z,3064.00
2017-12-15T12:44:12.240Z,2968.00
2017-12-15T12:45:12.335Z,2972.00
2017-12-15T12:47:05.178Z,3072.00
2017-12-15T12:48:05.200Z,3096.00
2017-12-15T12:49:59.174Z,2668.00
2017-12-15T12:50:59.172Z,2520.00
2017-12-15T12:52:52.113Z,2444.00
2017-12-15T12:53:52.133Z,2388.00
2017-12-15T12:55:45.609Z,2208.00
2017-12-15T12:56:45.597Z,2132.00
2017-12-15T12:58:39.059Z,2252.00
2017-12-15T12:59:39.059Z,2324.00
2017-12-15T13:01:33.534Z,2364.00
2017-12-15T13:02:33.551Z,2340.00
2017-12-15T13:04:28.046Z,2192.00
2017-12-15T13:05:28.044Z,2160.00
2017-12-15T13:07:21.492Z,2116.00
2017-12-15T13:08:21.510Z,2128.00
2017-12-15T13:10:14.981Z,2244.00
2017-12-15T13:11:14.974Z,2288.00
2017-12-15T13:13:07.912Z,2188.00
2017-12-15T13:14:07.927Z,2156.00
2017-12-15T13:16:01.394Z,2188.00
2017-12-15T13:17:01.394Z,2188.00
2017-12-15T13:18:55.919Z,2148.00
2017-12-15T13:19:55.884Z,2156.00
2017-12-15T13:21:49.331Z,2160.00
2017-12-15T13:22:49.351Z,2184.00
2017-12-15T13:24:42.814Z,2252.00
2017-12-15T13:25:42.818Z,2288.00
2017-12-15T13:27:36.267Z,2272.00
2017-12-15T13:28:36.298Z,2260.00
2017-12-15T13:30:29.750Z,2228.00
2017-12-15T13:31:29.749Z,2228.00
2017-12-15T13:33:23.255Z,2168.00
2017-12-15T13:34:23.215Z,2104.00
2017-12-15T13:36:16.662Z,2184.00
2017-12-15T13:37:16.681Z,2284.00
2017-12-15T13:39:09.649Z,2564.00
2017-12-15T13:40:09.635Z,2584.00
2017-12-15T13:42:03.082Z,2468.00
2017-12-15T13:43:03.104Z,2432.00
2017-12-15T13:44:56.570Z,2264.00
2017-12-15T13:45:56.570Z,2184.00
2017-12-15T13:47:52.062Z,2076.00
2017-12-15T13:48:52.097Z,2016.00
2017-12-15T13:50:45.546Z,1972.00
2017-12-15T13:51:45.549Z,2044.00
2017-12-15T13:53:39.015Z,2096.00
2017-12-15T13:54:39.012Z,2036.00
2017-12-15T13:56:33.484Z,1844.00
2017-12-15T13:57:33.504Z,1760.00
2017-12-15T13:59:27.961Z,1700.00
2017-12-15T14:00:26.968Z,1644.00
2017-12-15T14:02:20.417Z,1564.00
2017-12-15T14:03:20.434Z,1544.00
2017-12-15T14:05:13.903Z,1528.00
2017-12-15T14:06:13.917Z,1516.00
2017-12-15T14:08:07.404Z,1516.00
2017-12-15T14:09:07.375Z,1544.00
2017-12-15T14:11:00.845Z,1628.00
2017-12-15T14:12:00.839Z,1676.00
2017-12-15T14:13:54.312Z,1656.00
2017-12-15T14:14:54.307Z,1584.00
2017-12-15T14:16:47.751Z,1456.00
2017-12-15T14:17:47.769Z,1396.00
2017-12-15T14:19:41.238Z,1392.00
2017-12-15T14:20:41.235Z,1420.00
2017-12-15T14:22:35.710Z,1384.00
2017-12-15T14:23:35.724Z,1364.00
2017-12-15T14:25:28.675Z,1260.00
2017-12-15T14:26:28.675Z,1144.00
2017-12-15T14:28:22.136Z,1020.00
2017-12-15T14:29:22.144Z,1008.00
2017-12-15T14:31:15.614Z,968.00
2017-12-15T14:32:15.612Z,936.00
2017-12-15T14:34:09.081Z,944.00
2017-12-15T14:35:09.089Z,928.00
2017-12-15T14:37:02.687Z,868.00
2017-12-15T14:38:02.548Z,836.00
2017-12-15T14:39:56.012Z,776.00
2017-12-15T14:40:56.009Z,744.00
2017-12-15T14:42:50.483Z,688.00
2017-12-15T14:43:50.590Z,668.00
2017-12-15T14:45:43.983Z,620.00
2017-12-15T14:46:43.990Z,616.00
2017-12-15T14:48:43.831Z,600.00
2017-12-15T14:49:36.916Z,588.00
2017-12-15T14:51:30.386Z,532.00
2017-12-15T14:52:30.385Z,492.00
2017-12-15T14:54:23.336Z,432.00
2017-12-15T14:55:23.335Z,392.00
2017-12-15T14:57:16.786Z,312.00
2017-12-15T14:58:16.803Z,276.00
2017-12-15T15:00:11.298Z,228.00
2017-12-15T15:01:11.297Z,196.00
2017-12-15T15:03:05.792Z,172.00
2017-12-15T15:04:05.784Z,168.00
2017-12-15T15:05:58.739Z,152.00
2017-12-15T15:06:58.743Z,140.00
2017-12-15T15:08:52.216Z,116.00
2017-12-15T15:09:52.207Z,112.00
2017-12-15T15:11:45.673Z,96.00
2017-12-15T15:12:45.673Z,92.00
2017-12-15T15:14:40.161Z,92.00
2017-12-15T15:15:40.160Z,84.00
2017-12-15T15:17:36.068Z,76.00
2017-12-15T15:18:36.085Z,68.00
2017-12-15T15:20:29.555Z,56.00
2017-12-15T15:21:29.566Z,56.00
2017-12-15T15:23:23.004Z,48.00
2017-12-15T15:24:23.020Z,40.00
2017-12-15T15:26:17.511Z,36.00
2017-12-15T15:27:17.513Z,28.00
2017-12-15T15:29:11.984Z,24.00
2017-12-15T15:30:12.004Z,20.00
2017-12-15T15:32:05.469Z,12.00
2017-12-15T15:33:05.466Z,12.00
2017-12-15T15:34:58.933Z,8.00
2017-12-15T15:35:58.934Z,8.00
2017-12-15T15:37:52.386Z,4.00
2017-12-15T15:38:52.399Z,4.00
2017-12-15T15:40:46.941Z,4.00
2017-12-15T15:41:46.886Z,4.00
2017-12-15T15:43:39.825Z,4.00
2017-12-15T15:44:39.844Z,4.00
2017-12-15T15:46:32.794Z,0.00
2017-12-15T15:47:32.793Z,0.00
2017-12-15T15:49:26.242Z,0.00
2017-12-15T15:50:26.258Z,0.00
2017-12-15T15:52:19.750Z,0.00
2017-12-15T15:53:19.726Z,0.00
2017-12-15T15:55:13.194Z,0.00
2017-12-15T15:56:13.193Z,0.00
2017-12-15T15:58:08.650Z,0.00
2017-12-15T15:59:07.683Z,0.00
2017-12-15T16:01:02.177Z,0.00
2017-12-15T16:02:02.173Z,0.00
2017-12-15T16:03:55.118Z,0.00
2017-12-15T16:04:55.130Z,0.00
2017-12-15T16:06:49.618Z,0.00
2017-12-15T16:07:49.617Z,0.00
2017-12-15T16:09:43.073Z,0.00
2017-12-15T16:10:43.089Z,0.00
2017-12-15T16:12:36.551Z,0.00
2017-12-15T16:13:36.575Z,0.00
2017-12-15T16:15:30.033Z,0.00
2017-12-15T16:16:30.016Z,0.00
2017-12-15T16:18:23.463Z,0.00
2017-12-15T16:19:23.479Z,0.00
2017-12-15T16:21:16.952Z,0.00
2017-12-15T16:22:16.949Z,0.00
2017-12-15T16:24:10.404Z,0.00
2017-12-15T16:25:10.416Z,0.00
2017-12-15T16:27:03.885Z,0.00
2017-12-15T16:28:03.882Z,0.00
2017-12-15T16:29:57.328Z,0.00
2017-12-15T16:30:57.348Z,0.00
2017-12-15T16:32:50.817Z,0.00
2017-12-15T16:33:50.812Z,0.00
2017-12-15T16:35:43.770Z,0.00
2017-12-15T16:36:43.786Z,0.00
2017-12-15T16:38:38.241Z,0.00
2017-12-15T16:39:38.256Z,0.00
2017-12-15T16:41:31.726Z,0.00
2017-12-15T16:42:31.732Z,0.00
2017-12-15T16:44:25.685Z,0.00
2017-12-15T16:45:25.700Z,0.00
2017-12-15T16:47:19.176Z,0.00
2017-12-15T16:48:19.173Z,0.00
2017-12-15T16:50:12.638Z,0.00
2017-12-15T16:51:12.637Z,0.00
2017-12-15T16:53:05.591Z,0.00
2017-12-15T16:54:05.591Z,0.00
2017-12-15T16:55:58.545Z,0.00
2017-12-15T16:56:58.553Z,0.00
2017-12-15T16:58:51.494Z,0.00
2017-12-15T16:59:52.578Z,0.00
2017-12-15T17:01:46.083Z,0.00
2017-12-15T17:02:46.055Z,0.00
2017-12-15T17:04:42.114Z,0.00
2017-12-15T17:05:42.197Z,0.00
2017-12-15T17:07:37.163Z,0.00
2017-12-15T17:08:37.048Z,0.00
2017-12-15T17:10:30.661Z,0.00
2017-12-15T17:11:30.544Z,0.00
2017-12-15T17:13:24.042Z,0.00
2017-12-15T17:14:24.066Z,0.00
2017-12-15T17:16:17.570Z,0.00
2017-12-15T17:17:17.555Z,0.00
2017-12-15T17:19:11.992Z,0.00
2017-12-15T17:20:12.008Z,0.00
2017-12-15T17:22:05.493Z,0.00
2017-12-15T17:23:05.487Z,0.00
2017-12-15T17:24:58.991Z,0.00
2017-12-15T17:25:59.047Z,0.00
2017-12-15T17:27:52.511Z,0.00
2017-12-15T17:28:52.508Z,0.00
2017-12-15T17:30:45.994Z,0.00
2017-12-15T17:31:45.990Z,0.00
2017-12-15T17:33:39.421Z,0.00
2017-12-15T17:34:39.448Z,0.00
2017-12-15T17:36:32.921Z,0.00
2017-12-15T17:37:32.903Z,0.00
2017-12-15T17:39:27.492Z,0.00
2017-12-15T17:40:26.370Z,0.00
2017-12-15T17:42:19.376Z,0.00
2017-12-15T17:43:19.362Z,0.00
2017-12-15T17:45:12.878Z,0.00
2017-12-15T17:46:12.894Z,0.00
2017-12-15T17:48:07.486Z,0.00
2017-12-15T17:49:07.410Z,0.00
2017-12-15T17:51:00.866Z,0.00
2017-12-15T17:52:01.862Z,0.00
2017-12-15T17:53:55.329Z,0.00
2017-12-15T17:54:55.359Z,0.00
2017-12-15T17:56:48.917Z,0.00
2017-12-15T17:57:48.813Z,0.00
2017-12-15T17:59:46.764Z,0.00
2017-12-15T18:00:46.796Z,0.00
2017-12-15T18:02:40.286Z,0.00
2017-12-15T18:03:40.260Z,0.00
2017-12-15T18:05:33.791Z,0.00
2017-12-15T18:06:33.903Z,0.00
2017-12-15T18:08:27.189Z,0.00
2017-12-15T18:09:27.266Z,0.00
2017-12-15T18:11:20.651Z,0.00
2017-12-15T18:12:20.647Z,0.00
2017-12-15T18:14:14.164Z,0.00
2017-12-15T18:15:14.184Z,0.00
2017-12-15T18:17:07.683Z,0.00
2017-12-15T18:18:07.686Z,0.00
2017-12-15T18:20:03.718Z,0.00
2017-12-15T18:21:03.720Z,0.00
2017-12-15T18:22:57.174Z,0.00
2017-12-15T18:23:57.171Z,0.00
2017-12-15T18:25:51.643Z,0.00
2017-12-15T18:26:51.659Z,0.00
2017-12-15T18:28:45.136Z,0.00